x

Buoy A01 - Mass. Bay/stellwagen (44029) Wave Buoy

11:04 - Sat 24th Jun 2017 All times are EDT. -4 hours from GMT.

  • Sig Wave height 2.0ft
  • Peak Period 6s
  • Wind
    11mph, 11mph gusts
  • Sea Temp 59°f
  • Ar Temp 65°f
  • Sea Pressure 1008.6mb
  • Buoy A01 - Mass. Bay/stellwagen
  • Buoy A01 - Mass. Bay/stellwagen

More Historic Weather Station data

Upgrade to MSW Pro to gain access to the past 30 days of data for over 8000 Wavebouys and Weather Stations around the globe.

Join Pro

Comparision Forecast

View Surf forecast
   
Sáb 06/24 11:04 2ft 6s 11 11 mph 1008.6mb 59f 65f
10:04 1.6ft 5s 9 11 mph 1008mb 59f 65f
9:04 2ft 6s 9 11 mph 1006.6mb 59f 66f
8:04 1.6ft 6s 11 11 mph 1005.5mb 60f 68f
7:04 1.6ft 8s 4 7 mph 1005mb 60f 68f
6:04 1ft 2s 11 11 mph 1003.9mb 59f 68f
5:04 1.6ft 8s 11 16 mph 1002.9mb 61f 70f
4:04 1.3ft 8s 4 7 mph 1001.9mb 61f 68f
3:04 1.3ft 6s 9 11 mph 1001.1mb 60f 64f
2:04 1.6ft 5s 7 9 mph 1000.6mb 60f 63f
1:04  -   -  9 11 mph 1000.3mb 60f 63f
12:04  -   -  9 11 mph 1000.3mb 60f 63f
11:04 2ft 4s 9 11 mph 1000mb 60f 64f
10:04 2ft 6s 13 16 mph 1000.2mb 60f 64f
9:04 2ft 5s 11 13 mph 999.9mb 59f 63f
8:04 2.5ft 4s 11 13 mph 999.5mb 59f 63f
7:04 2.5ft 4s 13 16 mph 999.4mb 58f 64f
6:04 2.5ft 4s 13 16 mph 999.5mb 58f 62f
5:04 2.5ft 4s 16 18 mph 999.1mb 58f 63f
4:04 3ft 5s 16 18 mph 998.9mb 59f 64f
3:04 2.5ft 4s 13 13 mph 999.5mb 59f 64f
2:04 2.5ft 5s 13 16 mph 1000.4mb 59f 64f
1:04 2.5ft 5s 13 18 mph 1000.6mb 60f 64f
12:04 2.5ft 5s 13 16 mph 1001.3mb 60f 64f
Sex 06/23 11:04 2.5ft 5s 16 18 mph 1001.6mb 61f 65f
10:04 2.5ft 4s 16 18 mph 1001.8mb 60f 64f
9:04 2.5ft 4s 20 22 mph 1001.7mb 60f 65f
8:04 2.5ft 4s 16 18 mph 1001.7mb 60f 64f
7:04 3.5ft 4s 20 22 mph 1001.9mb 61f 64f
6:04 3ft 4s 20 22 mph 1002.4mb 61f 64f
5:04 2.5ft 4s 18 22 mph 1003mb 62f 67f
4:04 2.5ft 4s 16 18 mph 1003.9mb 61f 66f
2:04 1.6ft 3s 18 20 mph 1004.6mb 61f 67f
1:04 1.3ft 3s 9 9 mph 1005.9mb 61f 64f
12:04 1.3ft 3s 9 11 mph 1006.7mb 61f 63f
11:04 1.6ft 5s 11 13 mph 1007.2mb 61f 63f
10:04 1.3ft 6s 9 11 mph 1007.8mb 61f 62f
9:04  -   -  11 11 mph 1008.4mb 61f 62f
8:04  -   -  11 13 mph 1008.5mb 61f 62f
7:04 1ft 6s 11 13 mph 1008.7mb 61f 63f
6:04  -   -  9 11 mph 1008.7mb 61f 63f
5:04  -   -  11 11 mph 1008.8mb 61f 63f
4:04  -   -  9 11 mph 1008.8mb 62f 63f
3:04  -   -  9 9 mph 1009.6mb 62f 64f
2:04  -   -  7 9 mph 1010.2mb 62f 65f
1:04  -   -  7 9 mph 1010.8mb 62f 65f
12:04 1.6ft 4s 7 9 mph 1011.3mb 62f 64f
Qui 06/22 11:04  -   -  9 9 mph 1011.3mb 61f 65f
10:04 1.6ft 6s 7 7 mph 1011.5mb 60f 65f
9:04 1.6ft 5s 2 2 mph 1011.5mb 60f 64f
8:04 2ft 5s 4 7 mph 1011.1mb 60f 63f
7:04 1.6ft 6s 9 11 mph 1010.8mb 61f 64f
6:04 1.3ft 6s 11 13 mph 1010.8mb 62f 65f
5:04  -   -  13 16 mph 1011.6mb 63f 66f
4:04 1.3ft 7s 11 13 mph 1011.7mb 63f 66f
3:04 1ft 7s 11 13 mph 1012mb 63f 66f
2:04  -   -  9 11 mph 1012.6mb 62f 66f
1:04 1ft 7s 7 9 mph 1012.8mb 62f 65f
12:04 0.7ft  -  9 9 mph 1013.4mb 62f 64f
11:04 1ft 7s 7 7 mph 1013.3mb 61f 64f
10:04 1ft 7s 7 9 mph 1014.2mb 61f 63f
9:04 1ft 7s 7 7 mph 1014.5mb 60f 63f
8:04 1.6ft 7s 9 9 mph 1014.3mb 59f 60f
7:04 1.6ft 6s 7 9 mph 1014mb 59f 61f
6:04 1.6ft 7s 9 11 mph 1013.5mb 59f 60f
5:04  -   -  9 11 mph 1012.9mb 60f 60f
4:04 1.3ft 8s 9 9 mph 1012.6mb 60f 62f
3:04 1.3ft 7s 7 9 mph 1012.1mb 60f 62f
2:04 1ft 7s 9 11 mph 1012.2mb 60f 63f
1:04 1ft 8s 7 9 mph 1011.8mb 60f 62f
12:04 1ft 7s 7 9 mph 1011.5mb 61f 63f
Qua 06/21 11:04 1.3ft 6s 4 7 mph 1011.1mb 60f 63f
10:04 1.3ft 8s 4 7 mph 1010.8mb 58f 63f
9:04 1.3ft 6s 7 7 mph 1010.1mb 59f 65f
8:04 1.6ft 7s 11 13 mph 1009.3mb 59f 67f
7:04 1.6ft 7s 11 13 mph 1009mb 59f 68f
6:04 1.6ft 8s 9 9 mph 1008.5mb 59f 67f
5:04 1.6ft 8s 9 11 mph 1008.2mb 58f 66f
4:04 1.6ft 7s 11 13 mph 1008mb 56f 67f
3:04 2ft 3s 11 13 mph 1008.3mb 56f 66f
2:04 1.3ft 7s 9 11 mph 1008.6mb 56f 64f
1:04 1.3ft 7s 9 11 mph 1009.1mb 57f 64f
12:04 1.6ft 8s 4 7 mph 1009.3mb 56f 64f
11:04 1.6ft 6s 7 9 mph 1010mb 56f 63f
10:04 1.6ft 8s 7 9 mph 1010.2mb 56f 61f
9:04 2ft 6s 7 7 mph 1010.7mb 56f 59f
8:04 2.5ft 8s 4 4 mph 1011.1mb 55f 59f
7:04 2ft 6s 9 9 mph 1011.3mb 55f 59f
6:04 1.6ft 7s 9 11 mph 1011.5mb 55f 60f